Time;durP1;ratioP1;P1;durP2;ratioP2;P2;SDS_P1;SDS_P2;PMS_P1;PMS_P2;Temp;Humidity;BMP_temperature;BMP_pressure;BME280_temperature;BME280_humidity;BME280_pressure;Samples;Min_cycle;Max_cycle;Signal;HPM_P1;HPM_P2
2023/05/23 00:02:14;;;;;;;8.00;5.07;;;14.90;99.90;;;;;;2615322;39;20853;-67
2023/05/23 00:08:03;;;;;;;14.87;9.80;;;14.90;99.90;;;;;;2614230;54;20418;-68
2023/05/23 00:13:51;;;;;;;12.70;10.00;;;14.80;99.90;;;;;;2614846;54;20364;-69
2023/05/23 00:19:38;;;;;;;14.23;9.70;;;14.80;99.90;;;;;;2613394;31;20600;-68
2023/05/23 00:25:32;;;;;;;12.30;11.00;;;14.80;99.90;;;;;;2613680;54;20142;-68
2023/05/23 00:31:20;;;;;;;11.23;8.40;;;14.70;99.90;;;;;;2613326;54;20499;-68
2023/05/23 00:37:07;;;;;;;10.63;8.17;;;14.70;99.90;;;;;;2614821;54;20158;-69
2023/05/23 00:42:55;;;;;;;9.17;8.20;;;14.70;99.90;;;;;;2614683;54;20123;-69
2023/05/23 00:48:43;;;;;;;8.03;7.13;;;14.60;99.90;;;;;;2613741;54;20130;-68
2023/05/23 00:51:56;;;;;;;8.07;6.83;;;14.70;99.90;;;;;;2613651;39;20813;-68
2023/05/23 00:54:30;;;;;;;10.23;8.43;;;14.60;99.90;;;;;;2613417;54;20185;-69
2023/05/23 01:00:19;;;;;;;9.43;8.43;;;14.60;99.90;;;;;;2614384;54;20391;-68
2023/05/23 01:06:07;;;;;;;8.20;7.40;;;14.60;99.90;;;;;;2613728;54;20407;-68
2023/05/23 01:25:17;;;;;;;7.27;6.57;;;14.70;99.90;;;;;;2614326;54;20536;-70
2023/05/23 01:31:07;;;;;;;9.57;8.00;;;14.70;99.90;;;;;;2613042;54;20414;-68
2023/05/23 01:36:55;;;;;;;9.60;7.83;;;14.70;99.90;;;;;;2613365;54;20399;-69
2023/05/23 01:42:43;;;;;;;9.20;8.30;;;14.70;99.90;;;;;;2612179;54;20363;-69
2023/05/23 01:48:31;;;;;;;10.23;8.50;;;14.70;99.90;;;;;;2611542;54;20246;-68
2023/05/23 01:54:19;;;;;;;10.50;7.93;;;14.80;99.90;;;;;;2612672;54;20425;-68
2023/05/23 02:00:09;;;;;;;9.43;8.50;;;14.70;99.90;;;;;;2613449;54;20150;-68
2023/05/23 02:05:57;;;;;;;11.00;8.27;;;14.70;99.90;;;;;;2613198;54;20436;-68
2023/05/23 02:11:45;;;;;;;9.57;8.50;;;14.80;99.90;;;;;;2613935;54;20127;-69
2023/05/23 02:17:33;;;;;;;10.87;9.40;;;14.80;99.90;;;;;;2614057;54;20130;-69
2023/05/23 02:23:21;;;;;;;14.03;9.80;;;14.80;99.90;;;;;;2613967;39;20722;-71
2023/05/23 02:29:08;;;;;;;13.67;11.50;;;14.80;99.90;;;;;;2614523;39;20748;-71
2023/05/23 02:34:57;;;;;;;11.10;9.40;;;14.80;99.90;;;;;;2613956;54;20123;-75
2023/05/23 02:40:44;;;;;;;11.33;9.97;;;14.70;99.90;;;;;;2612941;54;20395;-75
2023/05/23 02:46:33;;;;;;;15.97;12.10;;;14.80;99.90;;;;;;2612989;54;20139;-74
2023/05/23 02:56:25;;;;;;;17.03;12.00;;;14.80;99.90;;;;;;2613170;54;21000;-75
2023/05/23 03:02:13;;;;;;;11.10;9.67;;;14.70;99.90;;;;;;2613487;54;20539;-74
2023/05/23 03:08:00;;;;;;;11.90;10.70;;;14.60;99.90;;;;;;2612416;54;20133;-74
2023/05/23 03:13:48;;;;;;;11.20;9.53;;;14.60;99.90;;;;;;2612964;39;20516;-74
2023/05/23 03:19:36;;;;;;;10.37;9.27;;;14.60;99.90;;;;;;2612690;54;20130;-74
2023/05/23 03:25:24;;;;;;;13.73;10.33;;;14.60;99.90;;;;;;2614248;39;20519;-74
2023/05/23 03:31:12;;;;;;;16.23;9.17;;;14.50;99.90;;;;;;2613550;46;20386;-74
2023/05/23 03:37:00;;;;;;;15.90;9.60;;;14.50;99.90;;;;;;2614854;39;20525;-75
2023/05/23 03:42:48;;;;;;;10.17;9.07;;;14.50;99.90;;;;;;2614999;46;20664;-73
2023/05/23 03:48:36;;;;;;;11.07;9.10;;;14.40;99.90;;;;;;2614311;54;20383;-74
2023/05/23 03:51:56;;;;;;;11.50;8.47;;;14.40;99.90;;;;;;2612863;54;20415;-74
2023/05/23 03:54:22;;;;;;;12.43;9.53;;;14.50;99.90;;;;;;2614169;54;20182;-74
2023/05/23 04:00:11;;;;;;;9.30;7.60;;;14.30;99.90;;;;;;2614220;54;20154;-74
2023/05/23 04:05:59;;;;;;;13.60;10.13;;;14.30;99.90;;;;;;2611434;39;20761;-74
2023/05/23 04:11:47;;;;;;;16.30;9.10;;;14.20;99.90;;;;;;2614554;54;20427;-74
2023/05/23 04:17:37;;;;;;;10.57;9.00;;;14.10;99.90;;;;;;2612894;54;20150;-74
2023/05/23 04:23:25;;;;;;;14.93;9.43;;;14.20;99.90;;;;;;2614351;54;20462;-73
2023/05/23 04:29:13;;;;;;;15.40;10.47;;;14.20;99.90;;;;;;2614545;54;20134;-75
2023/05/23 04:32:18;;;;;;;11.50;9.90;;;14.20;99.90;;;;;;2614823;54;20408;-75
2023/05/23 04:34:44;;;;;;;12.03;10.23;;;14.20;99.90;;;;;;2613882;54;20151;-74
2023/05/23 04:40:31;;;;;;;14.90;10.00;;;14.30;99.90;;;;;;2612684;54;20251;-74
2023/05/23 04:46:25;;;;;;;15.33;10.00;;;14.30;99.90;;;;;;2614387;54;20155;-74
2023/05/23 04:56:27;;;;;;;18.67;12.27;;;14.30;99.90;;;;;;2613291;39;20726;-73
2023/05/23 05:02:15;;;;;;;15.50;10.80;;;14.30;99.90;;;;;;2612517;54;20363;-74
2023/05/23 05:08:03;;;;;;;13.13;11.30;;;14.30;99.90;;;;;;2614641;54;20130;-74
2023/05/23 05:13:50;;;;;;;22.00;13.30;;;14.30;99.90;;;;;;2613477;54;20297;-74
2023/05/23 05:19:38;;;;;;;19.03;13.10;;;14.30;99.90;;;;;;2611810;54;20149;-73
2023/05/23 05:25:27;;;;;;;16.17;13.47;;;14.40;99.90;;;;;;2612851;39;20560;-74
2023/05/23 05:31:15;;;;;;;13.47;11.80;;;14.30;99.90;;;;;;2613239;54;20383;-74
2023/05/23 05:37:02;;;;;;;16.70;12.20;;;14.40;99.90;;;;;;2612689;54;20162;-74
2023/05/23 05:42:50;;;;;;;12.73;11.43;;;14.50;99.90;;;;;;2612034;54;20351;-74
2023/05/23 05:48:38;;;;;;;18.53;12.37;;;14.30;99.90;;;;;;2612440;54;20126;-77
2023/05/23 05:51:56;;;;;;;18.90;11.83;;;14.30;99.90;;;;;;2613454;54;20412;-77
2023/05/23 05:54:21;;;;;;;16.53;12.27;;;14.30;99.90;;;;;;2611383;39;20570;-74
2023/05/23 06:00:14;;;;;;;15.60;12.70;;;14.30;99.90;;;;;;2610695;54;20246;-73
2023/05/23 06:06:02;;;;;;;24.70;20.37;;;14.30;99.90;;;;;;2612366;54;20532;-74
2023/05/23 06:11:49;;;;;;;41.90;34.07;;;14.40;99.90;;;;;;2611569;54;20283;-73
2023/05/23 06:17:37;;;;;;;54.93;36.57;;;14.40;99.90;;;;;;2610490;31;20603;-74
2023/05/23 06:23:25;;;;;;;36.73;31.37;;;14.40;99.90;;;;;;2611535;46;20173;-73
2023/05/23 06:29:13;;;;;;;22.07;17.80;;;14.40;99.90;;;;;;2609142;54;20668;-73
2023/05/23 06:35:01;;;;;;;19.20;16.90;;;14.30;99.90;;;;;;2611731;54;20126;-73
2023/05/23 06:40:49;;;;;;;19.93;11.73;;;14.30;99.90;;;;;;2609244;54;20149;-73
2023/05/23 06:46:36;;;;;;;11.40;9.37;;;14.40;99.90;;;;;;2610119;54;20139;-73
2023/05/23 06:56:24;;;;;;;12.90;9.50;;;14.40;99.90;;;;;;2607250;54;20419;-74
2023/05/23 07:02:12;;;;;;;11.83;9.83;;;14.50;99.90;;;;;;2607986;54;20399;-74
2023/05/23 07:08:00;;;;;;;12.07;10.67;;;14.40;99.90;;;;;;2608847;54;20134;-73
2023/05/23 07:13:48;;;;;;;12.30;10.03;;;14.50;99.90;;;;;;2608443;39;20530;-73
2023/05/23 07:19:36;;;;;;;19.83;11.73;;;14.30;99.90;;;;;;2611052;54;20139;-74
2023/05/23 07:25:24;;;;;;;14.50;10.90;;;14.20;99.90;;;;;;2612644;54;20419;-74
2023/05/23 07:31:12;;;;;;;16.50;11.90;;;14.20;99.90;;;;;;2610842;54;20134;-73
2023/05/23 07:37:00;;;;;;;16.73;10.53;;;14.30;99.90;;;;;;2610742;54;20251;-73
2023/05/23 07:42:48;;;;;;;14.70;11.70;;;14.20;99.90;;;;;;2611270;54;20134;-73
2023/05/23 07:48:36;;;;;;;18.10;12.33;;;14.20;99.90;;;;;;2610203;54;20147;-74
2023/05/23 07:51:57;;;;;;;19.83;12.60;;;14.10;99.90;;;;;;2612515;54;20530;-73
2023/05/23 07:54:22;;;;;;;16.60;12.20;;;14.10;99.90;;;;;;2612005;47;20178;-72
2023/05/23 08:00:11;;;;;;;20.87;13.53;;;14.30;99.90;;;;;;2611509;54;20158;-74
2023/05/23 08:05:59;;;;;;;17.47;12.13;;;14.30;99.90;;;;;;2612727;54;20360;-74
2023/05/23 08:11:46;;;;;;;18.67;11.77;;;14.20;99.90;;;;;;2612631;54;20190;-74
2023/05/23 08:17:34;;;;;;;20.40;12.00;;;14.10;99.90;;;;;;2609942;54;20184;-73
2023/05/23 08:23:22;;;;;;;19.60;12.37;;;14.30;99.90;;;;;;2612104;54;20159;-73
2023/05/23 08:29:10;;;;;;;16.37;14.47;;;14.10;99.90;;;;;;2610296;54;20145;-73
2023/05/23 08:34:58;;;;;;;15.53;11.20;;;13.90;99.90;;;;;;2609672;54;20158;-73
2023/05/23 08:40:53;;;;;;;15.00;11.77;;;13.60;99.90;;;;;;2612130;54;20235;-74
2023/05/23 08:46:45;;;;;;;16.20;12.50;;;13.70;99.90;;;;;;2611768;54;20394;-74
2023/05/23 08:56:27;;;;;;;12.20;10.93;;;14.00;99.90;;;;;;2612798;54;20944;-73
2023/05/23 09:02:15;;;;;;;13.57;9.93;;;13.90;99.90;;;;;;2613587;46;20462;-73
2023/05/23 09:08:03;;;;;;;16.53;11.50;;;13.80;99.90;;;;;;2613441;54;20432;-74
2023/05/23 09:13:51;;;;;;;12.47;11.00;;;13.60;99.90;;;;;;2613446;54;20167;-73
2023/05/23 09:19:41;;;;;;;14.20;11.20;;;13.50;99.90;;;;;;2612330;54;20118;-73
2023/05/23 09:25:30;;;;;;;21.13;14.00;;;13.50;99.90;;;;;;2611608;54;20395;-73
2023/05/23 09:31:17;;;;;;;15.30;13.30;;;13.40;99.90;;;;;;2610590;54;20143;-73
2023/05/23 09:37:05;;;;;;;19.87;13.80;;;13.70;99.90;;;;;;2612190;54;20130;-74
2023/05/23 09:42:53;;;;;;;21.50;13.23;;;13.60;99.90;;;;;;2612583;46;20153;-73
2023/05/23 09:51:59;;;;;;;14.43;12.90;;;14.00;99.90;;;;;;2612474;54;20956;-74
2023/05/23 09:54:25;;;;;;;14.13;12.47;;;13.90;99.90;;;;;;2613459;54;20407;-73
2023/05/23 10:00:13;;;;;;;17.93;12.30;;;13.90;99.90;;;;;;2607018;54;20154;-73
2023/05/23 10:12:31;;;;;;;20.20;11.57;;;13.50;99.90;;;;;;2612064;54;20391;-72
2023/05/23 10:18:25;;;;;;;17.60;13.90;;;13.30;99.90;;;;;;2612202;54;20474;-73
2023/05/23 10:24:13;;;;;;;17.50;13.63;;;13.10;99.90;;;;;;2611794;46;20414;-73
2023/05/23 10:30:01;;;;;;;14.37;12.97;;;13.20;99.90;;;;;;2607893;54;20967;-73
2023/05/23 10:35:56;;;;;;;16.73;11.30;;;13.40;99.90;;;;;;2611890;54;20853;-72
2023/05/23 10:48:34;;;;;;;18.17;14.47;;;14.80;99.90;;;;;;2612990;54;20426;-73
2023/05/23 10:51:58;;;;;;;14.53;13.30;;;15.30;99.90;;;;;;2611153;54;20420;-73
2023/05/23 10:54:23;;;;;;;12.97;11.77;;;15.70;99.90;;;;;;2610686;54;20420;-73
2023/05/23 11:00:15;;;;;;;15.53;14.00;;;15.80;99.90;;;;;;2609052;54;20154;-73
2023/05/23 11:06:04;;;;;;;15.13;13.83;;;15.00;99.90;;;;;;2614421;54;20419;-72
2023/05/23 11:12:04;;;;;;;12.40;11.57;;;14.60;99.90;;;;;;2608851;39;20666;-74
2023/05/23 11:17:53;;;;;;;12.10;10.93;;;14.70;99.90;;;;;;2608090;54;20399;-73
2023/05/23 11:23:41;;;;;;;13.40;12.57;;;14.50;99.90;;;;;;2608654;54;20988;-73
2023/05/23 11:29:30;;;;;;;12.70;11.73;;;14.70;99.90;;;;;;2608067;54;20415;-74
2023/05/23 11:35:18;;;;;;;14.70;13.10;;;15.60;99.90;;;;;;2611306;54;20399;-74
2023/05/23 11:41:06;;;;;;;13.27;12.37;;;16.10;99.90;;;;;;2612198;54;20431;-74
2023/05/23 11:47:05;;;;;;;14.50;13.47;;;16.10;99.90;;;;;;2612355;54;20176;-73
2023/05/23 12:06:33;;;;;;;15.53;14.13;;;15.60;99.90;;;;;;2610732;54;20407;-74
2023/05/23 12:12:21;;;;;;;14.00;12.90;;;17.20;99.90;;;;;;2610764;54;21630;-73
2023/05/23 12:18:11;;;;;;;14.90;13.90;;;16.80;88.80;;;;;;2612211;54;20419;-74
2023/05/23 12:23:58;;;;;;;15.27;13.87;;;17.70;77.00;;;;;;2612184;54;20414;-74
2023/05/23 12:29:52;;;;;;;15.03;13.93;;;18.60;55.20;;;;;;2612611;31;20674;-74
2023/05/23 12:35:46;;;;;;;17.87;16.40;;;19.20;47.80;;;;;;2612688;46;20963;-73
2023/05/23 12:41:33;;;;;;;15.60;14.07;;;18.70;41.00;;;;;;2613163;54;20995;-74
2023/05/23 12:47:21;;;;;;;18.77;17.00;;;18.80;31.30;;;;;;2612871;47;20507;-73
2023/05/23 12:56:31;;;;;;;17.37;15.97;;;17.20;40.40;;;;;;2613090;54;20539;-73
2023/05/23 13:02:18;;;;;;;16.43;15.30;;;18.90;32.80;;;;;;2611950;54;20154;-72
2023/05/23 13:08:06;;;;;;;16.63;15.53;;;18.90;30.40;;;;;;2613421;54;20115;-73
2023/05/23 13:13:54;;;;;;;17.87;16.40;;;18.90;27.70;;;;;;2612263;54;20238;-74
2023/05/23 13:19:42;;;;;;;17.40;16.20;;;18.20;25.30;;;;;;2613812;39;20628;-74
2023/05/23 13:25:30;;;;;;;17.57;15.97;;;18.70;27.10;;;;;;2613021;54;20130;-74
2023/05/23 13:31:18;;;;;;;17.10;15.80;;;18.20;27.90;;;;;;2613270;54;21069;-73
2023/05/23 13:37:05;;;;;;;18.30;16.83;;;18.30;29.50;;;;;;2613690;54;20173;-74
2023/05/23 13:42:53;;;;;;;16.83;15.50;;;19.30;27.50;;;;;;2612344;54;20134;-73
2023/05/23 13:48:40;;;;;;;18.13;16.70;;;18.80;22.90;;;;;;2613736;54;20137;-73
2023/05/23 13:54:42;;;;;;;17.70;16.10;;;19.10;21.80;;;;;;2609928;54;20142;-73
2023/05/23 14:00:29;;;;;;;16.73;15.47;;;19.50;20.30;;;;;;2610491;54;20412;-74
2023/05/23 14:06:16;;;;;;;17.50;16.17;;;18.70;24.30;;;;;;2610936;54;20275;-73
2023/05/23 14:12:04;;;;;;;17.70;16.13;;;18.90;22.00;;;;;;2611011;54;20234;-73
2023/05/23 14:17:54;;;;;;;18.77;17.30;;;18.50;21.40;;;;;;2606047;54;21286;-73
2023/05/23 14:23:41;;;;;;;16.53;15.30;;;19.20;20.60;;;;;;2608106;54;20427;-74
2023/05/23 14:29:29;;;;;;;17.13;15.73;;;19.00;17.90;;;;;;2609192;39;20546;-73
2023/05/23 14:35:16;;;;;;;17.70;16.10;;;18.20;15.20;;;;;;2609960;54;20138;-74
2023/05/23 14:41:04;;;;;;;18.60;17.07;;;18.50;15.50;;;;;;2609682;39;20588;-73
2023/05/23 14:46:52;;;;;;;16.70;15.50;;;18.70;17.00;;;;;;2608755;54;20166;-73
2023/05/23 14:56:33;;;;;;;18.33;16.13;;;19.30;15.90;;;;;;2608310;54;20395;-74
2023/05/23 15:02:21;;;;;;;16.93;15.63;;;18.40;16.50;;;;;;2606311;54;20422;-74
2023/05/23 15:08:09;;;;;;;19.90;18.00;;;17.70;18.50;;;;;;2609580;54;20169;-73
2023/05/23 15:13:58;;;;;;;16.70;15.27;;;17.10;17.30;;;;;;2610350;54;20499;-74
2023/05/23 15:19:46;;;;;;;16.87;15.67;;;17.40;18.30;;;;;;2608704;46;20507;-75
2023/05/23 15:25:34;;;;;;;15.30;14.20;;;18.10;19.00;;;;;;2604159;54;20157;-70
2023/05/23 15:31:22;;;;;;;15.60;14.63;;;17.30;18.60;;;;;;2606972;54;20162;-70
2023/05/23 15:37:09;;;;;;;18.03;16.60;;;17.00;19.70;;;;;;2607841;54;20166;-69
2023/05/23 15:42:56;;;;;;;16.20;15.03;;;16.50;20.80;;;;;;2607476;54;20138;-70
2023/05/23 15:48:44;;;;;;;16.50;14.90;;;16.80;22.30;;;;;;2608815;39;20638;-69
2023/05/23 15:54:43;;;;;;;15.20;13.63;;;16.90;20.50;;;;;;2603725;47;20151;-70
2023/05/23 16:00:30;;;;;;;15.77;14.40;;;16.70;20.60;;;;;;2607157;54;20946;-70
2023/05/23 16:06:17;;;;;;;16.07;14.93;;;17.00;22.80;;;;;;2607812;54;20134;-69
2023/05/23 16:12:05;;;;;;;16.23;15.33;;;17.10;22.00;;;;;;2608812;54;20143;-70
2023/05/23 16:17:52;;;;;;;18.83;17.50;;;18.90;16.70;;;;;;2612374;54;20398;-69
2023/05/23 16:23:39;;;;;;;16.10;15.10;;;19.10;14.00;;;;;;2610710;54;20764;-71
2023/05/23 16:29:26;;;;;;;17.07;15.83;;;17.90;15.10;;;;;;2607499;54;20383;-71
2023/05/23 16:35:14;;;;;;;15.60;14.77;;;17.20;16.70;;;;;;2609881;54;20664;-71
2023/05/23 16:41:02;;;;;;;16.70;15.40;;;18.20;16.40;;;;;;2608821;39;20316;-72
2023/05/23 16:46:50;;;;;;;16.80;15.70;;;17.10;16.40;;;;;;2607563;54;20138;-70
2023/05/23 16:56:31;;;;;;;16.87;15.37;;;16.40;19.80;;;;;;2609082;54;20618;-71
2023/05/23 17:02:18;;;;;;;14.97;13.90;;;16.00;19.50;;;;;;2610538;54;20387;-72
2023/05/23 17:08:06;;;;;;;17.60;15.60;;;15.90;20.80;;;;;;2608983;54;20715;-71
2023/05/23 17:13:54;;;;;;;17.87;16.50;;;16.60;20.60;;;;;;2608502;54;20990;-71
2023/05/23 17:19:42;;;;;;;17.60;15.83;;;16.40;20.50;;;;;;2608843;54;20239;-70
2023/05/23 17:25:30;;;;;;;17.03;15.50;;;16.30;20.80;;;;;;2609133;54;20150;-71
2023/05/23 17:31:17;;;;;;;17.83;16.20;;;15.70;21.90;;;;;;2605581;46;20619;-71
2023/05/23 17:37:05;;;;;;;17.37;16.17;;;15.70;22.40;;;;;;2609528;54;21619;-71
2023/05/23 17:42:53;;;;;;;17.23;15.80;;;15.50;22.60;;;;;;2607801;54;20127;-71
2023/05/23 17:48:41;;;;;;;16.90;15.40;;;15.20;21.50;;;;;;2608485;54;20158;-71
2023/05/23 17:54:29;;;;;;;17.20;16.00;;;15.10;21.40;;;;;;2610569;39;20654;-73
2023/05/23 18:00:17;;;;;;;16.30;15.30;;;14.90;22.00;;;;;;2607757;54;20418;-73
2023/05/23 18:06:05;;;;;;;18.03;16.83;;;14.80;23.90;;;;;;2606317;54;20434;-74
2023/05/23 18:11:53;;;;;;;16.10;14.90;;;14.70;24.60;;;;;;2609915;54;20507;-73
2023/05/23 18:17:41;;;;;;;16.30;14.50;;;14.50;26.40;;;;;;2611002;54;20134;-73
2023/05/23 18:23:28;;;;;;;15.70;14.67;;;14.50;25.00;;;;;;2611912;54;20150;-73
2023/05/23 18:29:16;;;;;;;15.50;14.50;;;14.30;22.10;;;;;;2610707;54;20130;-73
2023/05/23 18:35:04;;;;;;;15.53;14.50;;;14.10;22.60;;;;;;2612921;54;20817;-71
2023/05/23 18:40:51;;;;;;;18.33;16.00;;;14.00;23.60;;;;;;2613037;54;20411;-73
2023/05/23 18:46:39;;;;;;;15.80;14.90;;;13.80;23.80;;;;;;2609941;54;20191;-72
2023/05/23 18:52:27;;;;;;;16.40;15.00;;;13.70;24.90;;;;;;2611550;54;20130;-73
2023/05/23 19:01:36;;;;;;;17.13;16.33;;;13.50;27.60;;;;;;2612323;39;20862;-74
2023/05/23 19:07:24;;;;;;;19.10;17.73;;;13.40;30.30;;;;;;2612962;54;20135;-71
2023/05/23 19:13:12;;;;;;;16.33;15.13;;;13.20;35.60;;;;;;2613172;54;20242;-73
2023/05/23 19:19:00;;;;;;;15.70;14.50;;;13.00;38.20;;;;;;2611623;54;20399;-73
2023/05/23 19:24:48;;;;;;;15.13;14.10;;;13.00;39.10;;;;;;2608261;54;20134;-72
2023/05/23 19:30:37;;;;;;;15.53;14.30;;;12.80;42.00;;;;;;2603442;54;20258;-72
2023/05/23 19:36:24;;;;;;;14.93;13.93;;;12.70;44.90;;;;;;2608352;54;20408;-73
2023/05/23 19:42:12;;;;;;;15.63;14.20;;;12.50;44.10;;;;;;2607019;54;20637;-71
2023/05/23 19:48:00;;;;;;;15.80;14.70;;;12.60;43.20;;;;;;2607716;54;20134;-73
2023/05/23 19:53:48;;;;;;;14.80;13.90;;;12.30;46.70;;;;;;2609335;54;20131;-72
2023/05/23 19:57:03;;;;;;;15.00;13.80;;;12.20;50.10;;;;;;2608898;47;20462;-73
2023/05/23 19:59:29;;;;;;;14.87;13.30;;;12.20;49.90;;;;;;2609720;39;20500;-72
2023/05/23 20:05:17;;;;;;;17.17;15.73;;;12.00;50.20;;;;;;2608871;54;20170;-73
2023/05/23 20:11:05;;;;;;;16.20;14.80;;;12.00;50.70;;;;;;2609114;54;21307;-71
2023/05/23 20:16:52;;;;;;;15.00;13.70;;;11.70;55.10;;;;;;2608747;46;20154;-72
2023/05/23 20:22:40;;;;;;;15.97;14.13;;;11.80;52.90;;;;;;2611635;54;20134;-73
2023/05/23 20:28:29;;;;;;;15.10;14.00;;;11.70;56.20;;;;;;2609064;54;20134;-72
2023/05/23 20:34:17;;;;;;;14.77;13.77;;;11.50;61.70;;;;;;2614039;54;20459;-73
2023/05/23 20:40:06;;;;;;;15.40;14.40;;;11.50;58.60;;;;;;2612660;39;20729;-72
2023/05/23 20:45:56;;;;;;;16.90;15.40;;;11.20;66.80;;;;;;2612916;54;20391;-72
2023/05/23 20:51:45;;;;;;;15.07;13.90;;;11.00;72.30;;;;;;2610628;54;20370;-71
2023/05/23 21:01:35;;;;;;;18.17;14.60;;;10.90;76.40;;;;;;2611276;54;20405;-72
2023/05/23 21:07:23;;;;;;;14.73;13.63;;;10.80;78.50;;;;;;2609218;54;20953;-72
2023/05/23 21:13:11;;;;;;;13.93;12.53;;;10.70;89.30;;;;;;2612373;54;20668;-72
2023/05/23 21:18:59;;;;;;;15.63;14.40;;;10.60;91.00;;;;;;2609958;39;21623;-71
2023/05/23 21:24:47;;;;;;;14.63;13.40;;;10.60;89.90;;;;;;2609993;39;20213;-73
2023/05/23 21:30:35;;;;;;;13.50;12.50;;;10.50;82.70;;;;;;2608517;54;20172;-73
2023/05/23 21:36:22;;;;;;;13.77;12.77;;;10.40;90.30;;;;;;2609212;39;20522;-73
2023/05/23 21:42:10;;;;;;;14.10;13.20;;;10.20;93.60;;;;;;2601771;54;20919;-72
2023/05/23 21:47:58;;;;;;;13.47;12.43;;;10.00;99.90;;;;;;2608305;54;20468;-72
2023/05/23 21:53:46;;;;;;;13.20;11.73;;;9.80;99.90;;;;;;2611946;54;20137;-72
2023/05/23 21:57:02;;;;;;;15.47;13.93;;;9.70;99.90;;;;;;2606296;54;20416;-72
2023/05/23 21:59:28;;;;;;;14.60;13.20;;;9.60;99.90;;;;;;2611108;54;20363;-72
2023/05/23 22:05:15;;;;;;;13.50;11.77;;;9.50;99.90;;;;;;2611931;54;20190;-71
2023/05/23 22:11:03;;;;;;;13.20;11.93;;;9.30;99.90;;;;;;2611310;54;20129;-72
2023/05/23 22:16:51;;;;;;;14.60;13.30;;;9.00;99.90;;;;;;2608149;54;20142;-72
2023/05/23 22:22:39;;;;;;;14.00;12.77;;;8.90;99.90;;;;;;2603951;54;20215;-72
2023/05/23 22:28:27;;;;;;;12.73;11.50;;;8.90;99.90;;;;;;2604363;54;20539;-71
2023/05/23 22:34:15;;;;;;;14.47;12.23;;;8.90;99.90;;;;;;2609272;54;20134;-72
2023/05/23 22:40:04;;;;;;;12.70;11.60;;;8.90;99.90;;;;;;2605058;54;20138;-71
2023/05/23 22:45:51;;;;;;;12.67;10.80;;;8.70;99.90;;;;;;2605728;54;20456;-72
2023/05/23 22:51:40;;;;;;;16.30;11.10;;;8.70;99.90;;;;;;2603922;54;20163;-72
2023/05/23 23:01:32;;;;;;;12.27;11.33;;;8.50;99.90;;;;;;2605642;54;20503;-72
2023/05/23 23:07:20;;;;;;;12.33;11.23;;;8.30;99.90;;;;;;2605955;39;20766;-71
2023/05/23 23:13:08;;;;;;;13.77;10.77;;;8.20;99.90;;;;;;2606597;54;20158;-71
2023/05/23 23:18:56;;;;;;;15.70;11.67;;;8.00;99.90;;;;;;2608654;54;20161;-71
2023/05/23 23:24:46;;;;;;;16.43;9.90;;;8.00;99.90;;;;;;2605329;54;20154;-72
2023/05/23 23:30:34;;;;;;;15.17;9.77;;;7.90;99.90;;;;;;2607730;54;20431;-72
2023/05/23 23:36:21;;;;;;;9.30;8.73;;;7.70;99.90;;;;;;2610385;54;20146;-71
2023/05/23 23:42:10;;;;;;;16.77;10.13;;;7.60;99.90;;;;;;2606358;54;20169;-71
2023/05/23 23:47:57;;;;;;;16.80;9.53;;;7.50;99.90;;;;;;2607313;54;20395;-71
2023/05/23 23:53:45;;;;;;;14.47;9.03;;;7.30;99.90;;;;;;2607074;54;20189;-70
2023/05/23 23:57:02;;;;;;;13.90;9.87;;;7.20;99.90;;;;;;2605289;54;20414;-71
2023/05/23 23:59:28;;;;;;;12.50;8.97;;;7.10;99.90;;;;;;2606441;54;20159;-72
